Time;durP1;ratioP1;P1;durP2;ratioP2;P2;SDS_P1;SDS_P2;PMS_P1;PMS_P2;Temp;Humidity;BMP_temperature;BMP_pressure;BME280_temperature;BME280_humidity;BME280_pressure;Samples;Min_cycle;Max_cycle;Signal;HPM_P1;HPM_P2
2023/01/03 00:01:58;;;;;;;;;;;;;;;10.23;67.25;99381.88;7388357;19;20298;-81
2023/01/03 00:04:24;;;;;;;;;;;;;;;10.19;67.24;99380.47;7387826;19;19915;-83
2023/01/03 00:06:51;;;;;;;;;;;;;;;10.27;67.12;99380.69;7395532;19;19990;-80
2023/01/03 00:09:23;;;;;;;;;;;;;;;10.22;67.35;99379.38;7398427;19;20518;-81
2023/01/03 00:14:40;;;;;;;;;;;;;;;10.35;66.82;99397.69;7389863;19;20669;-81
2023/01/03 00:17:06;;;;;;;;;;;;;;;10.23;67.13;99396.91;7398423;19;19918;-80
2023/01/03 00:19:37;;;;;;;;;;;;;;;10.21;67.14;99417.34;7393486;19;19919;-81
2023/01/03 00:22:04;;;;;;;;;;;;;;;10.00;67.76;99418.13;7397059;19;19940;-80
2023/01/03 00:24:30;;;;;;;;;;;;;;;10.07;67.75;99421.97;7396746;19;19914;-79
2023/01/03 00:26:57;;;;;;;;;;;;;;;10.10;67.73;99412.94;7397528;19;19915;-81
2023/01/03 00:29:24;;;;;;;;;;;;;;;10.04;67.79;99413.47;7396416;19;19978;-80
2023/01/03 00:31:50;;;;;;;;;;;;;;;9.98;67.77;99404.22;7394311;19;19907;-80
2023/01/03 00:34:17;;;;;;;;;;;;;;;10.08;67.27;99407.81;7395695;19;19923;-79
2023/01/03 00:36:43;;;;;;;;;;;;;;;9.99;67.71;99405.91;7393303;19;19919;-82
2023/01/03 00:39:13;;;;;;;;;;;;;;;9.97;67.87;99407.81;7385437;19;19923;-81
2023/01/03 00:41:40;;;;;;;;;;;;;;;9.88;68.27;99405.94;7386387;19;19926;-80
2023/01/03 00:44:06;;;;;;;;;;;;;;;9.94;67.82;99401.97;7388161;19;19919;-80
2023/01/03 00:46:33;;;;;;;;;;;;;;;9.83;67.82;99402.84;7387864;19;19930;-80
2023/01/03 00:49:00;;;;;;;;;;;;;;;9.95;67.91;99393.06;7391346;19;19925;-80
2023/01/03 00:51:29;;;;;;;;;;;;;;;9.95;68.10;99411.56;7388562;19;19921;-79
2023/01/03 00:53:56;;;;;;;;;;;;;;;9.75;68.03;99406.13;7390128;19;19934;-79
2023/01/03 00:56:24;;;;;;;;;;;;;;;9.89;67.55;99404.97;7392372;19;20370;-80
2023/01/03 00:58:51;;;;;;;;;;;;;;;9.89;67.91;99418.19;7393007;19;19922;-80
2023/01/03 01:01:19;;;;;;;;;;;;;;;9.93;67.37;99403.78;7410780;19;19914;-79
2023/01/03 01:03:47;;;;;;;;;;;;;;;9.98;66.88;99409.53;7384981;19;19922;-81
2023/01/03 01:06:13;;;;;;;;;;;;;;;9.91;67.25;99412.78;7379105;19;20370;-80
2023/01/03 01:08:40;;;;;;;;;;;;;;;10.02;66.69;99416.22;7378071;19;20333;-80
2023/01/03 01:11:07;;;;;;;;;;;;;;;10.21;66.42;99414.69;7381060;19;19925;-80
2023/01/03 01:13:34;;;;;;;;;;;;;;;10.23;66.53;99420.69;7376192;19;19919;-81
2023/01/03 01:16:04;;;;;;;;;;;;;;;10.06;66.42;99417.66;7375897;19;19922;-80
2023/01/03 01:18:31;;;;;;;;;;;;;;;10.10;66.35;99405.84;7375699;19;19929;-80
2023/01/03 01:20:58;;;;;;;;;;;;;;;10.15;65.77;99399.34;7374867;19;19911;-81
2023/01/03 01:23:24;;;;;;;;;;;;;;;9.97;66.01;99402.53;7373071;19;19943;-81
2023/01/03 01:25:51;;;;;;;;;;;;;;;9.98;66.52;99392.78;7372981;19;20336;-81
2023/01/03 01:28:17;;;;;;;;;;;;;;;9.99;66.54;99408.53;7380883;19;19926;-81
2023/01/03 01:30:44;;;;;;;;;;;;;;;10.14;65.92;99413.50;7374608;19;19922;-81
2023/01/03 01:33:10;;;;;;;;;;;;;;;9.99;66.22;99413.84;7375912;19;19918;-81
2023/01/03 01:35:37;;;;;;;;;;;;;;;9.98;66.12;99413.94;7372275;19;19915;-81
2023/01/03 01:38:04;;;;;;;;;;;;;;;10.05;65.79;99418.59;7375722;19;20017;-81
2023/01/03 01:40:31;;;;;;;;;;;;;;;10.02;65.86;99420.66;7374367;19;19919;-81
2023/01/03 01:45:49;;;;;;;;;;;;;;;9.92;66.86;99422.38;7370679;19;19935;-81
2023/01/03 01:48:16;;;;;;;;;;;;;;;10.06;66.02;99420.31;7379773;19;19927;-81
2023/01/03 01:50:44;;;;;;;;;;;;;;;9.98;66.79;99425.38;7369495;19;20260;-81
2023/01/03 01:53:15;;;;;;;;;;;;;;;9.92;66.42;99428.50;7374371;19;19918;-81
2023/01/03 01:55:45;;;;;;;;;;;;;;;10.06;66.30;99427.41;7369191;19;19926;-81
2023/01/03 01:58:11;;;;;;;;;;;;;;;10.05;66.03;99437.09;7379682;19;19929;-81
2023/01/03 02:00:38;;;;;;;;;;;;;;;9.98;66.38;99441.25;7376029;19;19915;-81
2023/01/03 02:03:05;;;;;;;;;;;;;;;9.99;66.21;99444.72;7377821;19;19921;-81
2023/01/03 02:05:33;;;;;;;;;;;;;;;10.00;66.70;99449.03;7371228;19;19922;-81
2023/01/03 02:07:59;;;;;;;;;;;;;;;9.92;66.80;99451.47;7373971;19;19922;-81
2023/01/03 02:10:49;;;;;;;;;;;;;;;9.89;67.11;99444.63;7370124;19;19923;-81
2023/01/03 02:13:21;;;;;;;;;;;;;;;9.91;67.43;99444.50;7371848;19;20580;-81
2023/01/03 02:16:10;;;;;;;;;;;;;;;9.89;67.79;99434.88;7366994;19;19922;-81
2023/01/03 02:18:46;;;;;;;;;;;;;;;9.84;67.55;99430.94;7370959;19;19925;-81
2023/01/03 02:21:13;;;;;;;;;;;;;;;9.86;67.92;99434.31;7377392;19;19999;-81
2023/01/03 02:23:54;;;;;;;;;;;;;;;9.85;68.02;99440.56;7369556;19;19931;-81
2023/01/03 02:26:26;;;;;;;;;;;;;;;9.93;67.44;99453.16;7369844;19;19915;-81
2023/01/03 02:29:12;;;;;;;;;;;;;;;9.95;66.18;99449.41;7368791;19;19919;-81
2023/01/03 02:31:47;;;;;;;;;;;;;;;10.03;66.02;99448.78;7367519;19;19936;-81
2023/01/03 02:34:20;;;;;;;;;;;;;;;10.08;65.74;99442.16;7356606;19;19915;-81
2023/01/03 02:37:02;;;;;;;;;;;;;;;10.04;65.59;99442.53;7362242;19;19936;-81
2023/01/03 02:39:33;;;;;;;;;;;;;;;10.00;65.76;99447.22;7369841;19;20534;-81
2023/01/03 02:45:10;;;;;;;;;;;;;;;9.86;66.32;99442.25;7361692;19;19919;-81
2023/01/03 02:47:45;;;;;;;;;;;;;;;9.83;66.34;99447.78;7366365;19;20446;-81
2023/01/03 02:50:11;;;;;;;;;;;;;;;9.75;66.42;99434.34;7373242;19;20475;-81
2023/01/03 02:52:38;;;;;;;;;;;;;;;9.63;66.82;99434.34;7368405;19;19922;-81
2023/01/03 02:55:07;;;;;;;;;;;;;;;9.65;66.63;99436.88;7373334;19;19923;-81
2023/01/03 02:57:44;;;;;;;;;;;;;;;9.44;66.91;99431.53;7358979;19;19937;-80
2023/01/03 03:00:12;;;;;;;;;;;;;;;9.59;66.81;99432.94;7373136;19;19910;-81
2023/01/03 03:02:39;;;;;;;;;;;;;;;9.44;67.26;99432.34;7372067;19;19914;-82
2023/01/03 03:05:06;;;;;;;;;;;;;;;9.59;67.26;99440.03;7378568;19;19915;-82
2023/01/03 03:07:34;;;;;;;;;;;;;;;9.49;67.36;99442.56;7373460;19;19922;-81
2023/01/03 03:15:36;;;;;;;;;;;;;;;9.45;67.28;99444.63;7367909;19;19914;-82
2023/01/03 03:18:04;;;;;;;;;;;;;;;9.44;67.48;99450.84;7380295;19;19919;-82
2023/01/03 03:26:28;;;;;;;;;;;;;;;9.40;67.92;99445.91;7378151;19;20279;-81
2023/01/03 03:28:56;;;;;;;;;;;;;;;9.33;68.17;99435.03;7374860;19;19919;-82
2023/01/03 03:31:28;;;;;;;;;;;;;;;9.37;68.19;99438.25;7377287;19;19943;-81
2023/01/03 03:33:55;;;;;;;;;;;;;;;9.38;68.29;99426.75;7369790;19;19931;-82
2023/01/03 03:36:27;;;;;;;;;;;;;;;9.60;67.34;99429.31;7377897;19;19918;-81
2023/01/03 03:38:53;;;;;;;;;;;;;;;9.55;67.39;99426.22;7377102;19;19923;-81
2023/01/03 03:46:57;;;;;;;;;;;;;;;9.52;67.55;99422.97;7373019;19;19918;-81
2023/01/03 03:49:39;;;;;;;;;;;;;;;9.41;67.46;99431.78;7373822;19;20423;-81
2023/01/03 03:52:07;;;;;;;;;;;;;;;9.49;67.29;99433.81;7372420;19;19914;-81
2023/01/03 03:54:34;;;;;;;;;;;;;;;9.22;68.47;99441.16;7373574;19;20424;-82
2023/01/03 03:57:21;;;;;;;;;;;;;;;9.19;67.75;99444.03;7382252;19;19923;-81
2023/01/03 03:59:49;;;;;;;;;;;;;;;9.13;68.26;99449.78;7376073;19;19929;-81
2023/01/03 04:02:15;;;;;;;;;;;;;;;9.06;68.02;99448.59;7380421;19;19929;-81
2023/01/03 04:04:43;;;;;;;;;;;;;;;8.92;69.04;99454.09;7376419;19;19919;-81
2023/01/03 04:07:09;;;;;;;;;;;;;;;8.98;68.48;99453.63;7379894;19;20295;-81
2023/01/03 04:09:36;;;;;;;;;;;;;;;8.73;69.85;99452.88;7373420;19;19919;-81
2023/01/03 04:12:03;;;;;;;;;;;;;;;8.78;69.31;99466.56;7379902;19;20423;-81
2023/01/03 04:14:30;;;;;;;;;;;;;;;8.75;69.10;99460.69;7379271;19;19974;-81
2023/01/03 04:16:56;;;;;;;;;;;;;;;8.64;69.37;99460.66;7376737;19;19914;-81
2023/01/03 04:19:23;;;;;;;;;;;;;;;8.61;69.00;99468.78;7380116;19;19926;-81
2023/01/03 04:21:49;;;;;;;;;;;;;;;8.40;70.05;99461.56;7375713;19;19930;-81
2023/01/03 04:24:19;;;;;;;;;;;;;;;8.44;70.14;99463.00;7381457;19;20352;-82
2023/01/03 04:26:46;;;;;;;;;;;;;;;8.33;70.18;99455.88;7371993;19;19997;-81
2023/01/03 04:29:12;;;;;;;;;;;;;;;8.30;70.28;99458.75;7379762;19;19914;-81
2023/01/03 04:31:39;;;;;;;;;;;;;;;8.39;70.28;99464.28;7375740;19;19948;-81
2023/01/03 04:34:05;;;;;;;;;;;;;;;8.41;69.84;99457.97;7379155;19;20618;-81
2023/01/03 04:36:32;;;;;;;;;;;;;;;8.12;70.45;99460.09;7372570;19;19926;-81
2023/01/03 04:38:59;;;;;;;;;;;;;;;7.89;70.73;99453.88;7377935;19;19923;-81
2023/01/03 04:41:25;;;;;;;;;;;;;;;7.81;71.41;99461.50;7375717;19;19928;-81
2023/01/03 04:44:03;;;;;;;;;;;;;;;7.81;71.50;99454.44;7369756;19;19923;-81
2023/01/03 04:46:34;;;;;;;;;;;;;;;7.61;72.31;99469.06;7377569;19;19919;-81
2023/01/03 04:49:01;;;;;;;;;;;;;;;7.58;72.24;99476.31;7381208;19;20257;-81
2023/01/03 04:51:28;;;;;;;;;;;;;;;7.62;72.03;99477.81;7376745;19;19934;-81
2023/01/03 04:53:54;;;;;;;;;;;;;;;7.63;71.90;99476.84;7374101;19;19983;-81
2023/01/03 04:56:30;;;;;;;;;;;;;;;7.58;71.95;99478.97;7374906;19;19917;-81
2023/01/03 04:58:57;;;;;;;;;;;;;;;7.62;72.00;99483.06;7369194;19;19929;-81
2023/01/03 05:01:24;;;;;;;;;;;;;;;7.60;72.26;99482.34;7376445;19;19923;-81
2023/01/03 05:03:50;;;;;;;;;;;;;;;7.52;72.33;99476.78;7373391;19;19925;-81
2023/01/03 05:06:17;;;;;;;;;;;;;;;7.47;72.67;99470.03;7368580;19;19986;-82
2023/01/03 05:08:45;;;;;;;;;;;;;;;7.46;73.18;99473.63;7373636;19;20605;-82
2023/01/03 05:11:12;;;;;;;;;;;;;;;7.60;73.09;99466.53;7377185;19;19939;-81
2023/01/03 05:13:38;;;;;;;;;;;;;;;7.59;73.24;99476.22;7362669;19;19925;-81
2023/01/03 05:16:06;;;;;;;;;;;;;;;7.59;74.07;99476.22;7375286;19;19930;-81
2023/01/03 05:18:33;;;;;;;;;;;;;;;7.79;73.37;99472.16;7374711;19;19918;-81
2023/01/03 05:26:37;;;;;;;;;;;;;;;7.71;73.39;99463.97;7368412;19;19929;-81
2023/01/03 05:29:03;;;;;;;;;;;;;;;7.60;73.33;99469.16;7373996;19;19919;-82
2023/01/03 05:31:30;;;;;;;;;;;;;;;7.59;73.45;99464.88;7372124;19;19933;-81
2023/01/03 05:33:57;;;;;;;;;;;;;;;7.62;73.24;99469.91;7368987;19;19923;-81
2023/01/03 05:36:23;;;;;;;;;;;;;;;7.55;73.31;99472.13;7374900;19;19918;-81
2023/01/03 05:38:50;;;;;;;;;;;;;;;7.51;73.34;99475.09;7368633;19;19917;-81
2023/01/03 05:41:58;;;;;;;;;;;;;;;7.42;73.82;99489.75;7376911;19;19927;-81
2023/01/03 05:44:03;;;;;;;;;;;;;;;7.39;73.61;99500.50;7375498;19;19930;-82
2023/01/03 05:46:30;;;;;;;;;;;;;;;7.35;73.81;99491.16;7375769;19;19933;-81
2023/01/03 05:48:57;;;;;;;;;;;;;;;7.43;73.40;99489.66;7366952;19;19911;-81
2023/01/03 05:51:24;;;;;;;;;;;;;;;7.41;73.60;99498.59;7376627;19;19922;-81
2023/01/03 05:53:50;;;;;;;;;;;;;;;7.33;73.51;99493.03;7372012;19;20249;-82
2023/01/03 05:56:17;;;;;;;;;;;;;;;7.23;73.45;99506.00;7373291;19;20344;-81
2023/01/03 05:58:43;;;;;;;;;;;;;;;7.21;73.40;99506.13;7374782;19;19927;-81
2023/01/03 06:01:12;;;;;;;;;;;;;;;7.12;73.56;99508.53;7377765;19;19918;-81
2023/01/03 06:03:38;;;;;;;;;;;;;;;7.19;73.76;99515.06;7367730;19;19986;-81
2023/01/03 06:06:05;;;;;;;;;;;;;;;7.01;73.88;99507.47;7370151;19;20356;-82
2023/01/03 06:08:32;;;;;;;;;;;;;;;7.14;73.79;99515.38;7376197;19;19934;-81
2023/01/03 06:10:59;;;;;;;;;;;;;;;7.12;74.38;99516.44;7366225;19;19915;-81
2023/01/03 06:13:25;;;;;;;;;;;;;;;7.17;73.91;99511.69;7372721;19;19922;-81
2023/01/03 06:18:37;;;;;;;;;;;;;;;7.03;74.01;99520.53;7372613;19;20266;-82
2023/01/03 06:21:04;;;;;;;;;;;;;;;6.97;74.31;99521.78;7367378;19;19915;-81
2023/01/03 06:23:31;;;;;;;;;;;;;;;7.07;74.12;99515.91;7367537;19;20340;-82
2023/01/03 06:25:57;;;;;;;;;;;;;;;7.25;73.53;99523.34;7365371;19;20356;-81
2023/01/03 06:28:24;;;;;;;;;;;;;;;7.09;73.73;99520.09;7365610;19;19923;-82
2023/01/03 06:30:51;;;;;;;;;;;;;;;7.17;73.51;99516.94;7362964;19;19926;-82
2023/01/03 06:33:18;;;;;;;;;;;;;;;7.04;73.89;99517.78;7371424;19;19922;-81
2023/01/03 06:35:45;;;;;;;;;;;;;;;7.11;74.06;99520.84;7363671;19;19919;-81
2023/01/03 06:38:11;;;;;;;;;;;;;;;7.12;73.65;99519.06;7372215;19;19930;-81
2023/01/03 06:40:38;;;;;;;;;;;;;;;7.06;73.85;99522.09;7378186;19;19944;-81
2023/01/03 06:43:11;;;;;;;;;;;;;;;7.22;73.54;99528.00;7383401;19;19931;-81
2023/01/03 06:53:53;;;;;;;;;;;;;;;7.04;73.59;99541.47;7371985;19;20351;-81
2023/01/03 06:56:21;;;;;;;;;;;;;;;6.92;73.38;99542.28;7376525;19;19921;-82
2023/01/03 06:58:48;;;;;;;;;;;;;;;6.99;73.42;99545.38;7378194;19;19984;-81
2023/01/03 07:01:15;;;;;;;;;;;;;;;6.80;73.79;99546.59;7383762;19;19919;-81
2023/01/03 07:03:41;;;;;;;;;;;;;;;6.76;74.27;99549.53;7376442;19;19923;-82
2023/01/03 07:06:08;;;;;;;;;;;;;;;6.70;74.44;99550.78;7380794;19;20568;-81
2023/01/03 07:08:35;;;;;;;;;;;;;;;6.63;74.87;99549.50;7379978;19;19944;-82
2023/01/03 07:11:01;;;;;;;;;;;;;;;6.71;75.54;99559.53;7379995;19;19915;-82
2023/01/03 07:16:14;;;;;;;;;;;;;;;6.65;75.12;99567.81;7376440;19;19978;-81
2023/01/03 07:18:40;;;;;;;;;;;;;;;6.46;76.21;99562.94;7377764;19;19932;-81
2023/01/03 07:21:07;;;;;;;;;;;;;;;6.55;75.98;99562.31;7382825;19;19918;-81
2023/01/03 07:23:33;;;;;;;;;;;;;;;6.54;75.60;99561.47;7377372;19;19934;-81
2023/01/03 07:26:00;;;;;;;;;;;;;;;6.42;76.52;99558.81;7371051;19;19919;-81
2023/01/03 07:28:27;;;;;;;;;;;;;;;6.52;76.43;99563.38;7379416;19;19933;-81
2023/01/03 07:30:58;;;;;;;;;;;;;;;6.62;76.11;99568.03;7375345;19;20353;-82
2023/01/03 07:33:24;;;;;;;;;;;;;;;6.71;75.69;99570.03;7376605;19;19915;-82
2023/01/03 07:35:51;;;;;;;;;;;;;;;6.65;76.28;99573.09;7370855;19;19930;-81
2023/01/03 07:38:18;;;;;;;;;;;;;;;6.71;76.09;99573.50;7374657;19;19922;-82
2023/01/03 07:40:44;;;;;;;;;;;;;;;6.89;75.88;99567.97;7373685;19;19917;-81
2023/01/03 07:45:56;;;;;;;;;;;;;;;7.09;75.25;99570.09;7368289;19;19926;-82
2023/01/03 07:48:23;;;;;;;;;;;;;;;7.15;75.46;99582.00;7378842;19;19958;-81
2023/01/03 07:50:49;;;;;;;;;;;;;;;7.24;75.37;99570.81;7378865;19;19934;-81
2023/01/03 07:53:16;;;;;;;;;;;;;;;7.28;75.33;99576.75;7378424;19;19925;-82
2023/01/03 07:55:44;;;;;;;;;;;;;;;7.40;75.26;99576.75;7375731;19;19982;-82
2023/01/03 07:58:11;;;;;;;;;;;;;;;7.48;75.48;99577.06;7377790;19;19918;-81
2023/01/03 08:00:38;;;;;;;;;;;;;;;7.64;75.37;99589.16;7380332;19;19915;-82
2023/01/03 08:03:05;;;;;;;;;;;;;;;7.68;75.36;99582.72;7378241;19;20002;-81
2023/01/03 08:05:36;;;;;;;;;;;;;;;7.78;75.13;99583.75;7376856;19;19922;-82
2023/01/03 08:08:03;;;;;;;;;;;;;;;7.94;74.82;99587.94;7374999;19;19922;-82
2023/01/03 08:13:18;;;;;;;;;;;;;;;8.11;74.26;99596.34;7383852;19;19955;-81
2023/01/03 08:15:45;;;;;;;;;;;;;;;8.23;73.21;99596.38;7374001;19;20555;-81
2023/01/03 08:18:11;;;;;;;;;;;;;;;8.20;72.86;99592.19;7380915;19;19915;-82
2023/01/03 08:20:38;;;;;;;;;;;;;;;8.06;73.52;99600.25;7377544;19;19915;-81
2023/01/03 08:23:05;;;;;;;;;;;;;;;8.18;73.18;99598.50;7372590;19;20726;-82
2023/01/03 08:25:31;;;;;;;;;;;;;;;8.15;73.13;99596.94;7378043;19;19927;-82
2023/01/03 08:27:58;;;;;;;;;;;;;;;8.27;72.83;99603.97;7370396;19;19923;-81
2023/01/03 08:30:25;;;;;;;;;;;;;;;8.27;72.40;99598.69;7379840;19;19917;-81
2023/01/03 08:32:52;;;;;;;;;;;;;;;8.31;72.67;99604.59;7374536;19;19914;-81
2023/01/03 08:35:18;;;;;;;;;;;;;;;8.27;72.74;99592.59;7370926;19;19923;-82
2023/01/03 08:37:45;;;;;;;;;;;;;;;8.21;73.03;99600.94;7373871;19;19918;-82
2023/01/03 08:40:11;;;;;;;;;;;;;;;8.31;72.85;99597.50;7381946;19;19954;-82
2023/01/03 08:42:38;;;;;;;;;;;;;;;8.44;72.30;99604.56;7381878;19;19946;-81
2023/01/03 08:45:05;;;;;;;;;;;;;;;8.29;72.66;99595.94;7381985;19;19917;-82
2023/01/03 08:47:32;;;;;;;;;;;;;;;8.22;73.03;99614.00;7381496;19;19919;-82
2023/01/03 08:49:58;;;;;;;;;;;;;;;8.12;73.15;99611.19;7375536;19;20399;-81
2023/01/03 08:52:25;;;;;;;;;;;;;;;8.18;73.32;99609.91;7377262;19;19922;-81
2023/01/03 08:55:00;;;;;;;;;;;;;;;8.16;73.01;99614.44;7374030;19;19926;-82
2023/01/03 08:57:26;;;;;;;;;;;;;;;8.30;72.79;99622.22;7383142;19;20262;-82
2023/01/03 08:59:55;;;;;;;;;;;;;;;8.31;72.63;99626.50;7376732;19;19930;-82
2023/01/03 09:02:22;;;;;;;;;;;;;;;8.29;72.89;99627.56;7379376;19;19907;-82
2023/01/03 09:04:51;;;;;;;;;;;;;;;8.06;73.27;99631.88;7378542;19;20375;-83
2023/01/03 09:07:18;;;;;;;;;;;;;;;8.13;73.55;99626.03;7383182;19;19930;-82
2023/01/03 09:09:45;;;;;;;;;;;;;;;8.20;73.61;99628.25;7380287;19;20206;-82
2023/01/03 09:12:12;;;;;;;;;;;;;;;8.26;73.61;99633.06;7384350;19;19918;-82
2023/01/03 09:14:39;;;;;;;;;;;;;;;8.32;73.84;99628.22;7378966;19;19982;-82
2023/01/03 09:17:06;;;;;;;;;;;;;;;8.40;73.56;99632.09;7372038;19;19983;-82
2023/01/03 09:19:32;;;;;;;;;;;;;;;8.45;73.01;99633.47;7385700;19;19922;-82
2023/01/03 09:22:00;;;;;;;;;;;;;;;8.53;73.14;99632.91;7382996;19;19957;-82
2023/01/03 09:24:34;;;;;;;;;;;;;;;8.66;72.81;99646.03;7388328;19;19915;-82
2023/01/03 09:27:22;;;;;;;;;;;;;;;8.57;73.09;99644.94;7381996;19;19915;-80
2023/01/03 09:29:52;;;;;;;;;;;;;;;8.69;72.93;99651.09;7378448;19;19921;-81
2023/01/03 09:32:19;;;;;;;;;;;;;;;8.79;72.55;99641.53;7378148;19;19926;-81
2023/01/03 09:34:47;;;;;;;;;;;;;;;8.70;71.99;99647.50;7375220;19;19915;-81
2023/01/03 09:37:34;;;;;;;;;;;;;;;8.96;71.65;99658.78;7380291;19;19915;-81
2023/01/03 09:40:01;;;;;;;;;;;;;;;8.92;71.94;99658.16;7374609;19;19907;-81
2023/01/03 09:45:17;;;;;;;;;;;;;;;9.00;72.05;99655.81;7377475;19;19966;-82
2023/01/03 09:47:43;;;;;;;;;;;;;;;9.04;71.56;99651.13;7375309;19;20336;-81
2023/01/03 09:50:16;;;;;;;;;;;;;;;9.08;71.68;99651.72;7374079;19;20520;-81
2023/01/03 10:03:42;;;;;;;;;;;;;;;9.31;71.51;99663.22;7370963;19;19944;-81
2023/01/03 10:04:41;;;;;;;;;;;;;;;9.42;70.94;99660.59;7382926;19;19923;-80
2023/01/03 10:07:23;;;;;;;;;;;;;;;9.61;69.75;99660.88;7377210;19;19939;-80
2023/01/03 10:09:50;;;;;;;;;;;;;;;9.62;69.89;99667.84;7376594;19;19918;-81
2023/01/03 10:12:21;;;;;;;;;;;;;;;9.43;70.71;99652.56;7385182;19;19952;-80
2023/01/03 10:14:54;;;;;;;;;;;;;;;9.55;69.65;99661.34;7377773;19;19911;-80
2023/01/03 10:17:39;;;;;;;;;;;;;;;9.44;69.79;99658.69;7382410;19;19918;-80
2023/01/03 10:20:08;;;;;;;;;;;;;;;9.30;69.81;99661.53;7384520;19;19974;-80
2023/01/03 10:22:35;;;;;;;;;;;;;;;9.11;70.19;99656.78;7382780;19;19922;-81
2023/01/03 10:25:09;;;;;;;;;;;;;;;9.33;70.32;99658.66;7377650;19;19940;-81
2023/01/03 10:28:08;;;;;;;;;;;;;;;9.35;69.85;99656.75;7387522;19;19914;-81
2023/01/03 10:30:53;;;;;;;;;;;;;;;9.32;69.93;99659.59;7382733;19;19931;-81
2023/01/03 10:33:35;;;;;;;;;;;;;;;9.25;70.35;99663.69;7378415;19;19931;-81
2023/01/03 10:36:02;;;;;;;;;;;;;;;9.29;70.33;99657.19;7371271;19;19919;-81
2023/01/03 10:38:28;;;;;;;;;;;;;;;9.29;70.63;99655.41;7380629;19;19937;-81
2023/01/03 10:40:56;;;;;;;;;;;;;;;9.43;70.61;99660.50;7379531;19;20467;-81
2023/01/03 10:43:31;;;;;;;;;;;;;;;9.51;70.70;99651.97;7382069;19;19922;-81
2023/01/03 10:45:59;;;;;;;;;;;;;;;9.92;70.00;99658.47;7373095;19;19932;-81
2023/01/03 10:48:33;;;;;;;;;;;;;;;10.24;69.38;99649.81;7380179;19;19930;-81
2023/01/03 10:51:20;;;;;;;;;;;;;;;10.74;67.98;99643.13;7382011;19;19915;-81
2023/01/03 10:53:46;;;;;;;;;;;;;;;11.14;67.36;99641.66;7377576;19;19926;-81
2023/01/03 10:56:13;;;;;;;;;;;;;;;11.36;65.59;99645.97;7377133;19;19915;-82
2023/01/03 10:58:40;;;;;;;;;;;;;;;11.04;65.81;99630.13;7378093;19;19937;-81
2023/01/03 11:01:10;;;;;;;;;;;;;;;10.77;66.31;99624.34;7370882;19;19930;-81
2023/01/03 11:03:43;;;;;;;;;;;;;;;10.75;67.01;99626.28;7370337;19;20006;-81
2023/01/03 11:06:16;;;;;;;;;;;;;;;10.90;66.73;99624.19;7374472;19;20341;-81
2023/01/03 11:08:44;;;;;;;;;;;;;;;11.01;66.38;99633.03;7381650;19;19944;-82
2023/01/03 11:11:34;;;;;;;;;;;;;;;11.15;65.36;99622.13;7377943;19;19925;-81
2023/01/03 11:14:18;;;;;;;;;;;;;;;11.20;65.00;99625.22;7371381;19;21045;-80
2023/01/03 11:16:44;;;;;;;;;;;;;;;11.28;65.27;99627.22;7378973;19;19919;-81
2023/01/03 11:19:15;;;;;;;;;;;;;;;11.27;64.22;99621.09;7372056;19;19923;-81
2023/01/03 11:21:47;;;;;;;;;;;;;;;11.28;64.58;99628.06;7374503;19;19957;-81
2023/01/03 11:24:23;;;;;;;;;;;;;;;11.26;64.80;99618.56;7373014;19;21152;-81
2023/01/03 11:26:54;;;;;;;;;;;;;;;11.30;65.06;99615.53;7367523;19;19926;-81
2023/01/03 11:29:36;;;;;;;;;;;;;;;11.16;64.48;99613.19;7376078;19;19922;-81
2023/01/03 11:32:16;;;;;;;;;;;;;;;11.17;64.53;99617.53;7375445;19;19922;-81
2023/01/03 11:35:01;;;;;;;;;;;;;;;11.24;64.41;99610.75;7375761;19;20335;-81
2023/01/03 11:38:06;;;;;;;;;;;;;;;11.11;64.19;99604.78;7370281;19;19922;-81
2023/01/03 11:40:52;;;;;;;;;;;;;;;11.34;63.72;99609.00;7383700;19;19923;-81
2023/01/03 11:43:24;;;;;;;;;;;;;;;11.36;63.51;99601.75;7383327;19;19985;-80
2023/01/03 11:46:09;;;;;;;;;;;;;;;11.49;63.24;99598.06;7372153;19;19919;-80
2023/01/03 11:48:48;;;;;;;;;;;;;;;11.55;63.10;99593.06;7378558;19;22089;-80
2023/01/03 11:51:17;;;;;;;;;;;;;;;11.61;62.59;99592.56;7382090;19;19925;-81
2023/01/03 11:53:44;;;;;;;;;;;;;;;11.66;63.15;99592.13;7385111;19;20275;-81
2023/01/03 11:56:15;;;;;;;;;;;;;;;11.64;62.77;99596.75;7378293;19;20341;-80
2023/01/03 11:58:51;;;;;;;;;;;;;;;11.74;62.31;99595.00;7382509;19;19923;-81
2023/01/03 12:01:36;;;;;;;;;;;;;;;11.58;62.25;99591.97;7379671;19;19922;-82
2023/01/03 12:04:06;;;;;;;;;;;;;;;11.06;63.16;99591.09;7373386;19;19921;-81
2023/01/03 12:06:33;;;;;;;;;;;;;;;11.19;63.30;99591.78;7381365;19;20495;-81
2023/01/03 12:09:09;;;;;;;;;;;;;;;11.56;62.65;99578.88;7379039;19;20424;-80
2023/01/03 12:11:58;;;;;;;;;;;;;;;11.67;62.89;99580.59;7381618;19;19923;-81
2023/01/03 12:14:26;;;;;;;;;;;;;;;11.66;61.69;99584.19;7380613;19;19925;-81
2023/01/03 12:16:58;;;;;;;;;;;;;;;11.80;60.68;99577.72;7375970;19;19923;-80
2023/01/03 12:19:29;;;;;;;;;;;;;;;11.78;59.63;99579.66;7377561;19;20291;-80
2023/01/03 12:22:00;;;;;;;;;;;;;;;11.76;60.08;99577.13;7370742;19;19921;-80
2023/01/03 12:24:44;;;;;;;;;;;;;;;11.69;58.86;99578.66;7377961;19;19922;-80
2023/01/03 12:27:13;;;;;;;;;;;;;;;11.74;59.97;99575.56;7374456;19;19911;-81
2023/01/03 12:29:49;;;;;;;;;;;;;;;11.64;59.96;99576.38;7381012;19;20298;-81
2023/01/03 12:32:17;;;;;;;;;;;;;;;11.54;60.44;99577.31;7379331;19;19915;-80
2023/01/03 12:34:47;;;;;;;;;;;;;;;11.64;59.99;99573.72;7372950;19;19921;-80
2023/01/03 12:37:17;;;;;;;;;;;;;;;11.70;59.29;99575.00;7375342;19;19919;-81
2023/01/03 12:39:48;;;;;;;;;;;;;;;11.67;59.84;99569.16;7381728;19;19923;-81
2023/01/03 12:42:24;;;;;;;;;;;;;;;11.48;58.44;99569.88;7378697;19;20746;-81
2023/01/03 12:45:06;;;;;;;;;;;;;;;11.35;59.01;99563.00;7375810;19;20236;-80
2023/01/03 12:47:32;;;;;;;;;;;;;;;11.67;59.26;99564.69;7380947;19;19934;-81
2023/01/03 12:50:04;;;;;;;;;;;;;;;11.77;58.52;99570.00;7377834;19;19932;-80
2023/01/03 12:52:31;;;;;;;;;;;;;;;11.43;58.29;99555.22;7375022;19;19918;-80
2023/01/03 12:55:03;;;;;;;;;;;;;;;11.35;58.27;99562.16;7368210;19;19922;-81
2023/01/03 12:57:41;;;;;;;;;;;;;;;11.45;58.26;99557.72;7377663;19;19915;-81
2023/01/03 13:00:08;;;;;;;;;;;;;;;11.39;58.63;99558.25;7373753;19;19994;-80
2023/01/03 13:02:35;;;;;;;;;;;;;;;11.52;58.26;99553.59;7369541;19;19919;-80
2023/01/03 13:05:10;;;;;;;;;;;;;;;11.43;58.76;99555.22;7371716;19;19918;-80
2023/01/03 13:07:38;;;;;;;;;;;;;;;11.61;57.48;99558.09;7377065;19;19914;-81
2023/01/03 13:10:06;;;;;;;;;;;;;;;11.71;57.36;99552.81;7373796;19;19914;-81
2023/01/03 13:12:35;;;;;;;;;;;;;;;11.76;58.71;99547.94;7375066;19;22024;-80
2023/01/03 13:15:02;;;;;;;;;;;;;;;11.60;58.56;99539.66;7368664;19;20352;-81
2023/01/03 13:17:29;;;;;;;;;;;;;;;11.45;57.77;99541.00;7383916;19;19923;-82
2023/01/03 13:20:15;;;;;;;;;;;;;;;11.44;58.38;99545.47;7377612;19;19926;-82
2023/01/03 13:22:43;;;;;;;;;;;;;;;11.20;59.26;99541.28;7379915;19;19911;-82
2023/01/03 13:25:25;;;;;;;;;;;;;;;11.27;59.49;99538.97;7373183;19;20212;-82
2023/01/03 13:27:54;;;;;;;;;;;;;;;11.46;58.84;99540.88;7382659;19;19922;-82
2023/01/03 13:30:22;;;;;;;;;;;;;;;11.51;58.80;99541.31;7386162;19;19935;-81
2023/01/03 13:32:51;;;;;;;;;;;;;;;11.54;58.93;99545.50;7379468;19;20435;-82
2023/01/03 13:35:19;;;;;;;;;;;;;;;11.59;59.24;99540.66;7385665;19;19903;-82
2023/01/03 13:37:47;;;;;;;;;;;;;;;11.58;59.26;99536.31;7383661;19;20514;-82
2023/01/03 13:40:15;;;;;;;;;;;;;;;11.59;59.32;99540.66;7377907;19;19929;-82
2023/01/03 13:42:42;;;;;;;;;;;;;;;11.54;59.88;99538.41;7381833;19;19919;-82
2023/01/03 13:45:18;;;;;;;;;;;;;;;11.46;59.50;99532.09;7378679;19;19918;-81
2023/01/03 13:47:48;;;;;;;;;;;;;;;11.33;59.58;99538.44;7377303;19;19929;-81
2023/01/03 13:50:21;;;;;;;;;;;;;;;11.30;60.82;99533.41;7373478;19;20337;-82
2023/01/03 13:52:54;;;;;;;;;;;;;;;11.13;61.35;99528.72;7378683;19;20385;-82
2023/01/03 13:55:34;;;;;;;;;;;;;;;11.03;61.05;99527.81;7381144;19;20258;-82
2023/01/03 13:58:02;;;;;;;;;;;;;;;10.92;60.95;99547.25;7375470;19;19922;-81
2023/01/03 14:00:28;;;;;;;;;;;;;;;10.95;61.25;99544.34;7378263;19;20632;-81
2023/01/03 14:03:04;;;;;;;;;;;;;;;10.70;62.60;99535.81;7370710;19;19939;-81
2023/01/03 14:05:37;;;;;;;;;;;;;;;10.44;63.43;99531.84;7375120;19;19929;-82
2023/01/03 14:08:22;;;;;;;;;;;;;;;10.30;63.80;99536.47;7369821;19;19919;-82
2023/01/03 14:11:08;;;;;;;;;;;;;;;10.00;65.10;99539.75;7380652;19;20300;-81